Time;durP1;ratioP1;P1;durP2;ratioP2;P2;SDS_P1;SDS_P2;PMS_P1;PMS_P2;Temp;Humidity;BMP_temperature;BMP_pressure;BME280_temperature;BME280_humidity;BME280_pressure;Samples;Min_cycle;Max_cycle;Signal;HPM_P1;HPM_P2
2022/08/23 00:00:41;;;;;;;14.60;6.75;;;;;;;;;;4997650;28;94090;-72
2022/08/23 00:03:07;;;;;;;12.55;6.53;;;;;;;;;;4999187;28;96440;-72
2022/08/23 00:05:34;;;;;;;9.85;6.05;;;;;;;;;;4997160;28;96321;-72
2022/08/23 00:08:01;;;;;;;11.82;7.05;;;;;;;;;;4998037;28;93548;-71
2022/08/23 00:10:27;;;;;;;12.27;6.43;;;;;;;;;;4996986;28;93042;-71
2022/08/23 00:12:53;;;;;;;13.68;6.57;;;;;;;;;;4996950;28;93840;-72
2022/08/23 00:15:20;;;;;;;8.88;6.22;;;;;;;;;;4997285;28;94152;-72
2022/08/23 00:17:46;;;;;;;8.82;6.03;;;;;;;;;;4997228;28;92424;-72
2022/08/23 00:20:14;;;;;;;10.82;6.20;;;;;;;;;;4997494;28;93262;-72
2022/08/23 00:22:40;;;;;;;16.90;6.55;;;;;;;;;;4997251;28;94072;-72
2022/08/23 00:25:08;;;;;;;12.77;5.85;;;;;;;;;;5000376;28;92560;-72
2022/08/23 00:27:35;;;;;;;13.63;6.53;;;;;;;;;;4995003;28;97423;-72
2022/08/23 00:30:03;;;;;;;10.95;6.20;;;;;;;;;;4998178;28;92446;-72
2022/08/23 00:32:31;;;;;;;12.00;7.45;;;;;;;;;;4997578;28;92719;-72
2022/08/23 00:34:58;;;;;;;16.10;6.65;;;;;;;;;;4995719;28;93342;-72
2022/08/23 00:37:25;;;;;;;9.55;6.03;;;;;;;;;;4996134;28;92424;-72
2022/08/23 00:39:51;;;;;;;10.98;6.78;;;;;;;;;;4996522;28;92965;-72
2022/08/23 00:48:16;;;;;;;16.50;6.80;;;;;;;;;;5000142;28;92323;-72
2022/08/23 00:50:48;;;;;;;9.57;7.25;;;;;;;;;;4997108;28;92379;-72
2022/08/23 00:53:19;;;;;;;9.68;6.85;;;;;;;;;;5029312;27;94775;-72
2022/08/23 00:55:47;;;;;;;16.52;6.85;;;;;;;;;;5016188;28;92488;-71
2022/08/23 00:58:15;;;;;;;10.60;7.18;;;;;;;;;;5003022;28;92590;-72
2022/08/23 01:00:42;;;;;;;8.18;6.57;;;;;;;;;;4995049;28;93307;-72
2022/08/23 01:03:09;;;;;;;22.67;6.97;;;;;;;;;;4996300;28;93355;-71
2022/08/23 01:05:55;;;;;;;9.20;7.13;;;;;;;;;;4997476;28;92463;-72
2022/08/23 01:08:23;;;;;;;8.18;7.38;;;;;;;;;;4994385;28;95102;-72
2022/08/23 01:10:54;;;;;;;15.57;7.60;;;;;;;;;;4999878;28;91651;-71
2022/08/23 01:13:28;;;;;;;10.20;6.93;;;;;;;;;;4997131;28;92651;-71
2022/08/23 01:15:57;;;;;;;16.48;6.75;;;;;;;;;;4993779;28;95279;-71
2022/08/23 01:18:27;;;;;;;9.68;7.07;;;;;;;;;;4993252;28;96480;-71
2022/08/23 01:20:56;;;;;;;12.27;7.03;;;;;;;;;;4996331;28;95127;-71
2022/08/23 01:23:28;;;;;;;15.77;7.77;;;;;;;;;;4976241;28;93048;-71
2022/08/23 01:25:55;;;;;;;12.15;7.20;;;;;;;;;;4991817;28;92566;-71
2022/08/23 01:28:21;;;;;;;12.45;7.18;;;;;;;;;;4976966;28;92883;-71
2022/08/23 01:30:47;;;;;;;12.45;6.95;;;;;;;;;;4975773;28;93673;-71
2022/08/23 01:33:16;;;;;;;15.38;7.72;;;;;;;;;;4978310;28;92550;-71
2022/08/23 01:35:48;;;;;;;12.45;6.55;;;;;;;;;;4991843;28;93605;-71
2022/08/23 01:38:14;;;;;;;13.00;6.95;;;;;;;;;;4979802;28;92823;-71
2022/08/23 01:40:41;;;;;;;13.20;7.28;;;;;;;;;;4994694;28;95174;-71
2022/08/23 01:43:08;;;;;;;11.77;7.28;;;;;;;;;;4994367;28;95680;-71
2022/08/23 01:45:36;;;;;;;9.70;7.35;;;;;;;;;;4994596;28;92325;-71
2022/08/23 01:48:05;;;;;;;10.95;6.90;;;;;;;;;;4994884;28;93962;-71
2022/08/23 01:50:32;;;;;;;13.55;7.38;;;;;;;;;;4994746;28;93257;-71
2022/08/23 01:52:59;;;;;;;13.00;8.32;;;;;;;;;;4997588;28;92477;-72
2022/08/23 01:55:28;;;;;;;12.85;8.75;;;;;;;;;;4980419;28;92396;-72
2022/08/23 01:57:56;;;;;;;10.70;7.82;;;;;;;;;;4984939;28;92638;-71
2022/08/23 02:00:24;;;;;;;15.60;8.68;;;;;;;;;;4975414;28;95167;-71
2022/08/23 02:02:51;;;;;;;12.13;8.68;;;;;;;;;;4975321;28;94182;-72
2022/08/23 02:05:18;;;;;;;14.32;9.52;;;;;;;;;;4995069;28;92490;-72
2022/08/23 02:07:46;;;;;;;15.77;8.48;;;;;;;;;;4992932;28;94715;-72
2022/08/23 02:10:12;;;;;;;15.43;8.65;;;;;;;;;;4995744;28;93278;-71
2022/08/23 02:12:39;;;;;;;14.25;8.85;;;;;;;;;;4994076;28;92820;-71
2022/08/23 02:15:12;;;;;;;15.30;9.00;;;;;;;;;;4996972;28;94678;-72
2022/08/23 02:17:42;;;;;;;11.40;8.93;;;;;;;;;;4995253;28;92483;-71
2022/08/23 02:20:09;;;;;;;12.02;8.40;;;;;;;;;;4995379;28;93371;-71
2022/08/23 02:22:38;;;;;;;14.10;9.07;;;;;;;;;;4994227;28;95828;-72
2022/08/23 02:25:05;;;;;;;10.13;8.93;;;;;;;;;;4994523;28;91890;-71
2022/08/23 02:27:33;;;;;;;13.82;9.02;;;;;;;;;;4993836;28;93998;-72
2022/08/23 02:29:59;;;;;;;11.88;9.90;;;;;;;;;;4994298;28;94165;-71
2022/08/23 02:32:28;;;;;;;12.68;9.35;;;;;;;;;;4991979;28;95192;-71
2022/08/23 02:34:54;;;;;;;12.63;9.13;;;;;;;;;;4993992;28;95557;-71
2022/08/23 02:37:33;;;;;;;17.10;10.23;;;;;;;;;;4997293;28;94576;-71
2022/08/23 02:39:59;;;;;;;12.60;9.80;;;;;;;;;;4993988;28;92894;-71
2022/08/23 02:42:26;;;;;;;11.18;9.70;;;;;;;;;;4994138;28;93168;-71
2022/08/23 02:44:53;;;;;;;11.82;9.43;;;;;;;;;;4995741;28;92443;-71
2022/08/23 02:47:20;;;;;;;18.52;10.00;;;;;;;;;;4993946;28;95840;-71
2022/08/23 02:49:59;;;;;;;14.25;8.75;;;;;;;;;;4993240;28;93486;-71
2022/08/23 02:52:26;;;;;;;11.48;9.25;;;;;;;;;;4995409;28;92461;-71
2022/08/23 02:54:52;;;;;;;14.00;9.63;;;;;;;;;;5041690;27;95392;-71
2022/08/23 02:57:23;;;;;;;16.27;9.50;;;;;;;;;;4989431;28;96373;-71
2022/08/23 02:59:52;;;;;;;11.38;9.48;;;;;;;;;;4976566;28;92582;-71
2022/08/23 03:02:18;;;;;;;15.85;10.25;;;;;;;;;;4972952;28;95348;-71
2022/08/23 03:04:46;;;;;;;14.10;10.23;;;;;;;;;;4988813;28;92432;-71
2022/08/23 03:07:13;;;;;;;14.75;10.23;;;;;;;;;;4993007;28;92961;-71
2022/08/23 03:09:40;;;;;;;18.02;10.05;;;;;;;;;;4991528;28;95859;-71
2022/08/23 03:12:06;;;;;;;15.73;10.15;;;;;;;;;;4994414;28;92288;-71
2022/08/23 03:14:36;;;;;;;16.23;9.85;;;;;;;;;;4992338;28;93853;-71
2022/08/23 03:17:03;;;;;;;10.95;9.55;;;;;;;;;;4992908;28;93181;-71
2022/08/23 03:19:30;;;;;;;12.45;9.38;;;;;;;;;;4995391;28;92422;-71
2022/08/23 03:21:56;;;;;;;14.85;10.02;;;;;;;;;;4996026;28;94818;-71
2022/08/23 03:24:23;;;;;;;13.35;9.45;;;;;;;;;;4992427;28;92486;-71
2022/08/23 03:26:50;;;;;;;14.85;11.13;;;;;;;;;;4993312;28;95006;-71
2022/08/23 03:29:18;;;;;;;16.08;9.93;;;;;;;;;;4991884;28;94163;-71
2022/08/23 03:31:57;;;;;;;11.85;10.02;;;;;;;;;;4994558;28;92422;-72
2022/08/23 03:34:24;;;;;;;15.05;9.18;;;;;;;;;;4992456;28;93815;-71
2022/08/23 03:36:52;;;;;;;16.73;9.30;;;;;;;;;;4991884;28;95726;-71
2022/08/23 03:39:18;;;;;;;10.55;9.00;;;;;;;;;;5029906;28;92060;-71
2022/08/23 03:41:45;;;;;;;24.52;9.02;;;;;;;;;;5013234;28;92376;-71
2022/08/23 03:44:11;;;;;;;15.02;9.05;;;;;;;;;;5015355;28;95837;-71
2022/08/23 03:46:41;;;;;;;9.85;8.85;;;;;;;;;;5011555;28;94817;-71
2022/08/23 03:49:07;;;;;;;10.82;8.68;;;;;;;;;;5012454;28;95873;-71
2022/08/23 03:51:43;;;;;;;10.85;9.10;;;;;;;;;;5011987;28;92473;-71
2022/08/23 03:54:10;;;;;;;10.82;8.68;;;;;;;;;;5012316;28;92983;-71
2022/08/23 03:56:39;;;;;;;13.98;9.15;;;;;;;;;;4992246;28;95827;-71
2022/08/23 03:59:07;;;;;;;11.65;9.05;;;;;;;;;;5005991;28;92516;-71
2022/08/23 04:01:33;;;;;;;11.38;9.07;;;;;;;;;;4974658;28;92485;-71
2022/08/23 04:04:00;;;;;;;14.70;9.73;;;;;;;;;;4974926;28;93191;-73
2022/08/23 04:06:30;;;;;;;12.25;8.60;;;;;;;;;;4973397;28;93193;-72
2022/08/23 04:08:57;;;;;;;10.98;8.63;;;;;;;;;;4972869;28;93157;-72
2022/08/23 04:11:24;;;;;;;12.07;9.35;;;;;;;;;;4977394;28;95059;-72
2022/08/23 04:13:58;;;;;;;17.13;10.20;;;;;;;;;;4991632;28;95470;-72
2022/08/23 04:16:25;;;;;;;17.95;9.00;;;;;;;;;;4991907;28;95724;-72
2022/08/23 04:18:51;;;;;;;15.25;8.93;;;;;;;;;;4991860;28;92944;-72
2022/08/23 04:21:21;;;;;;;13.68;8.35;;;;;;;;;;4992408;28;95216;-73
2022/08/23 04:23:47;;;;;;;12.43;8.88;;;;;;;;;;4992310;28;95702;-72
2022/08/23 04:26:14;;;;;;;12.38;8.23;;;;;;;;;;4995538;28;92833;-72
2022/08/23 04:28:42;;;;;;;9.05;8.02;;;;;;;;;;4996572;28;94927;-72
2022/08/23 04:31:09;;;;;;;12.10;8.38;;;;;;;;;;4995903;28;92453;-72
2022/08/23 04:33:37;;;;;;;14.95;9.07;;;;;;;;;;5027852;28;95268;-72
2022/08/23 04:36:07;;;;;;;8.90;8.05;;;;;;;;;;4994129;28;95598;-72
2022/08/23 04:38:33;;;;;;;17.33;8.15;;;;;;;;;;4995745;28;92511;-73
2022/08/23 04:43:50;;;;;;;11.48;8.00;;;;;;;;;;4981238;28;95878;-72
2022/08/23 04:46:19;;;;;;;11.27;8.02;;;;;;;;;;4995633;28;92588;-72
2022/08/23 04:48:45;;;;;;;13.93;8.18;;;;;;;;;;4997899;28;94991;-72
2022/08/23 04:51:12;;;;;;;12.02;8.20;;;;;;;;;;4995959;28;92611;-72
2022/08/23 04:53:39;;;;;;;12.02;8.05;;;;;;;;;;5001518;28;94038;-72
2022/08/23 04:56:24;;;;;;;10.88;7.85;;;;;;;;;;4989180;28;92762;-72
2022/08/23 04:58:51;;;;;;;12.80;7.55;;;;;;;;;;4977590;28;92523;-72
2022/08/23 05:01:18;;;;;;;12.05;7.88;;;;;;;;;;4983173;28;94774;-72
2022/08/23 05:03:45;;;;;;;12.60;8.25;;;;;;;;;;4995625;28;95208;-72
2022/08/23 05:06:12;;;;;;;13.05;8.13;;;;;;;;;;4995374;28;92521;-73
2022/08/23 05:08:38;;;;;;;12.45;7.65;;;;;;;;;;4994201;28;94738;-72
2022/08/23 05:11:08;;;;;;;9.82;7.35;;;;;;;;;;4998500;28;93210;-72
2022/08/23 05:13:35;;;;;;;10.80;7.32;;;;;;;;;;4983731;28;92760;-71
2022/08/23 05:16:03;;;;;;;12.73;7.35;;;;;;;;;;4985074;28;94978;-71
2022/08/23 05:18:33;;;;;;;11.88;7.95;;;;;;;;;;4992197;28;91791;-71
2022/08/23 05:21:00;;;;;;;12.80;8.48;;;;;;;;;;5023065;28;93860;-71
2022/08/23 05:23:26;;;;;;;11.00;7.90;;;;;;;;;;4995896;28;93043;-71
2022/08/23 05:26:01;;;;;;;15.18;9.50;;;;;;;;;;4987807;28;94962;-71
2022/08/23 05:28:41;;;;;;;11.52;8.70;;;;;;;;;;4974001;28;97531;-71
2022/08/23 05:31:12;;;;;;;17.35;8.88;;;;;;;;;;4976570;28;93015;-70
2022/08/23 05:33:43;;;;;;;15.10;8.52;;;;;;;;;;5011447;28;92460;-71
2022/08/23 05:36:12;;;;;;;10.27;8.60;;;;;;;;;;5019630;28;94346;-71
2022/08/23 05:38:39;;;;;;;17.30;8.20;;;;;;;;;;4994364;28;92381;-71
2022/08/23 05:41:08;;;;;;;13.15;8.40;;;;;;;;;;4991542;28;93931;-71
2022/08/23 05:43:34;;;;;;;14.88;8.57;;;;;;;;;;4985744;28;92553;-71
2022/08/23 05:46:02;;;;;;;12.07;8.57;;;;;;;;;;4985594;28;92513;-71
2022/08/23 05:48:32;;;;;;;11.18;8.02;;;;;;;;;;5006141;28;93946;-71
2022/08/23 05:51:09;;;;;;;11.10;8.43;;;;;;;;;;4972405;28;96529;-71
2022/08/23 05:53:37;;;;;;;19.42;8.93;;;;;;;;;;5008087;28;92364;-71
2022/08/23 05:56:09;;;;;;;20.25;8.88;;;;;;;;;;5012544;28;93031;-71
2022/08/23 05:58:36;;;;;;;22.98;10.23;;;;;;;;;;4975991;28;92578;-71
2022/08/23 06:01:03;;;;;;;19.00;8.80;;;;;;;;;;4975545;28;92749;-71
2022/08/23 06:03:29;;;;;;;11.20;8.32;;;;;;;;;;4973838;28;95166;-71
2022/08/23 06:06:00;;;;;;;14.63;8.15;;;;;;;;;;4991386;28;92477;-71
2022/08/23 06:08:28;;;;;;;17.92;8.43;;;;;;;;;;4988243;28;95713;-72
2022/08/23 06:11:18;;;;;;;19.75;8.40;;;;;;;;;;4973150;28;93235;-72
2022/08/23 06:13:47;;;;;;;13.43;8.63;;;;;;;;;;4975834;28;93398;-71
2022/08/23 06:16:14;;;;;;;9.55;7.55;;;;;;;;;;4996803;28;96216;-72
2022/08/23 06:18:43;;;;;;;15.70;8.48;;;;;;;;;;4985616;28;93423;-72
2022/08/23 06:21:44;;;;;;;10.45;7.90;;;;;;;;;;4936918;28;93806;-72
2022/08/23 06:24:12;;;;;;;14.20;8.48;;;;;;;;;;4965409;28;93231;-71
2022/08/23 06:26:48;;;;;;;16.13;8.77;;;;;;;;;;4986622;28;93995;-71
2022/08/23 06:29:16;;;;;;;18.85;9.13;;;;;;;;;;4994929;28;95215;-72
2022/08/23 06:31:46;;;;;;;20.88;9.23;;;;;;;;;;4992766;28;94217;-72
2022/08/23 06:34:32;;;;;;;23.55;9.60;;;;;;;;;;5028388;28;91740;-72
2022/08/23 06:37:15;;;;;;;12.95;8.80;;;;;;;;;;4994128;28;94963;-71
2022/08/23 06:40:02;;;;;;;12.65;8.50;;;;;;;;;;4997321;28;93284;-72
2022/08/23 06:42:56;;;;;;;10.32;8.73;;;;;;;;;;4977000;28;95420;-72
2022/08/23 06:45:26;;;;;;;18.08;8.60;;;;;;;;;;4994311;28;93422;-72
2022/08/23 06:48:01;;;;;;;18.50;8.73;;;;;;;;;;4984003;28;92561;-72
2022/08/23 06:50:28;;;;;;;14.45;7.70;;;;;;;;;;5007377;28;95393;-71
2022/08/23 06:53:16;;;;;;;15.40;8.20;;;;;;;;;;4974919;28;92941;-71
2022/08/23 06:55:54;;;;;;;13.10;8.85;;;;;;;;;;4979837;28;92532;-72
2022/08/23 06:58:26;;;;;;;23.10;9.65;;;;;;;;;;4977527;28;95896;-71
2022/08/23 07:01:33;;;;;;;17.98;9.15;;;;;;;;;;5008734;28;97213;-71
2022/08/23 07:04:23;;;;;;;11.25;9.07;;;;;;;;;;5013178;28;92534;-71
2022/08/23 07:07:06;;;;;;;13.90;8.98;;;;;;;;;;4986410;28;95081;-71
2022/08/23 07:09:37;;;;;;;23.13;8.95;;;;;;;;;;4973228;28;94997;-71
2022/08/23 07:12:05;;;;;;;18.17;8.52;;;;;;;;;;5006129;28;95266;-71
2022/08/23 07:14:32;;;;;;;10.73;8.35;;;;;;;;;;4972088;28;93252;-71
2022/08/23 07:17:00;;;;;;;19.20;9.40;;;;;;;;;;4976236;28;92528;-71
2022/08/23 07:19:27;;;;;;;15.90;9.60;;;;;;;;;;5006949;28;94703;-71
2022/08/23 07:21:55;;;;;;;13.65;8.98;;;;;;;;;;4973831;28;95017;-72
2022/08/23 07:24:22;;;;;;;13.70;9.57;;;;;;;;;;5007698;28;92956;-71
2022/08/23 07:26:53;;;;;;;14.13;11.77;;;;;;;;;;4980376;28;92945;-72
2022/08/23 07:29:21;;;;;;;17.92;10.05;;;;;;;;;;4984706;28;92922;-72
2022/08/23 07:31:49;;;;;;;16.65;10.70;;;;;;;;;;4972978;28;95662;-72
2022/08/23 07:34:16;;;;;;;20.83;10.63;;;;;;;;;;4971899;28;96606;-71
2022/08/23 07:36:44;;;;;;;18.90;10.00;;;;;;;;;;4988624;28;92488;-72
2022/08/23 07:39:11;;;;;;;13.85;10.18;;;;;;;;;;4972395;28;93819;-71
2022/08/23 07:41:38;;;;;;;20.20;10.65;;;;;;;;;;4983383;28;93418;-71
2022/08/23 07:44:08;;;;;;;19.30;8.57;;;;;;;;;;4980352;28;93283;-71
2022/08/23 07:46:37;;;;;;;17.98;10.10;;;;;;;;;;4986768;28;94950;-71
2022/08/23 07:49:03;;;;;;;13.02;9.43;;;;;;;;;;4975648;28;93048;-70
2022/08/23 07:51:35;;;;;;;15.35;9.02;;;;;;;;;;4988030;28;95243;-71
2022/08/23 07:54:04;;;;;;;18.35;10.25;;;;;;;;;;4982101;28;95170;-72
2022/08/23 07:56:33;;;;;;;12.50;7.57;;;;;;;;;;4979976;28;93771;-72
2022/08/23 07:59:04;;;;;;;25.90;9.45;;;;;;;;;;4982432;28;95440;-72
2022/08/23 08:01:50;;;;;;;18.70;9.05;;;;;;;;;;5010976;28;93737;-72
2022/08/23 08:04:17;;;;;;;18.77;10.07;;;;;;;;;;5014615;28;92930;-72
2022/08/23 08:06:47;;;;;;;27.98;11.20;;;;;;;;;;4975517;28;93004;-72
2022/08/23 08:09:36;;;;;;;21.27;8.25;;;;;;;;;;4975502;28;93187;-72
2022/08/23 08:12:03;;;;;;;16.75;9.07;;;;;;;;;;4994933;28;92339;-72
2022/08/23 08:14:30;;;;;;;15.07;9.20;;;;;;;;;;4993205;28;95516;-72
2022/08/23 08:16:59;;;;;;;20.63;8.25;;;;;;;;;;5009616;28;91740;-72
2022/08/23 08:19:44;;;;;;;15.98;9.23;;;;;;;;;;4977347;28;92383;-72
2022/08/23 08:22:30;;;;;;;27.10;10.50;;;;;;;;;;4977993;28;92846;-72
2022/08/23 08:25:26;;;;;;;18.10;8.70;;;;;;;;;;4971885;28;94962;-72
2022/08/23 08:27:53;;;;;;;16.33;9.45;;;;;;;;;;4992737;28;95270;-72
2022/08/23 08:30:20;;;;;;;15.60;8.48;;;;;;;;;;5009059;28;95237;-72
2022/08/23 08:32:48;;;;;;;12.35;9.07;;;;;;;;;;5011576;28;92668;-72
2022/08/23 08:35:14;;;;;;;28.75;9.45;;;;;;;;;;4976194;28;95503;-72
2022/08/23 08:37:41;;;;;;;20.40;9.55;;;;;;;;;;5008931;28;93043;-73
2022/08/23 08:40:08;;;;;;;14.25;8.73;;;;;;;;;;4977101;28;93055;-72
2022/08/23 08:42:48;;;;;;;22.90;8.65;;;;;;;;;;5009828;28;92433;-72
2022/08/23 08:45:20;;;;;;;24.35;10.18;;;;;;;;;;4992336;28;92625;-72
2022/08/23 08:47:53;;;;;;;25.35;9.65;;;;;;;;;;4975292;28;95451;-72
2022/08/23 08:50:51;;;;;;;12.82;9.18;;;;;;;;;;5007217;28;95516;-72
2022/08/23 08:53:21;;;;;;;29.58;9.65;;;;;;;;;;4966466;28;92934;-72
2022/08/23 08:56:29;;;;;;;13.32;8.63;;;;;;;;;;4978280;28;92902;-72
2022/08/23 08:59:11;;;;;;;19.33;9.98;;;;;;;;;;4973848;28;92888;-73
2022/08/23 09:01:38;;;;;;;62.33;15.65;;;;;;;;;;4974197;28;95670;-72
2022/08/23 09:04:05;;;;;;;23.65;9.23;;;;;;;;;;4991626;28;96081;-73
2022/08/23 09:06:37;;;;;;;20.95;8.52;;;;;;;;;;4974924;28;92477;-73
2022/08/23 09:09:14;;;;;;;17.80;7.65;;;;;;;;;;4977761;28;93007;-72
2022/08/23 09:11:49;;;;;;;15.77;8.32;;;;;;;;;;4976841;28;93311;-72
2022/08/23 09:14:26;;;;;;;15.93;8.13;;;;;;;;;;4989657;28;92526;-73
2022/08/23 09:17:01;;;;;;;44.47;12.63;;;;;;;;;;4973428;28;94861;-73
2022/08/23 09:19:32;;;;;;;11.77;7.65;;;;;;;;;;4994313;28;94879;-73
2022/08/23 09:22:04;;;;;;;18.20;8.13;;;;;;;;;;4991357;28;95310;-72
2022/08/23 09:24:30;;;;;;;22.85;8.48;;;;;;;;;;4989881;28;92982;-73
2022/08/23 09:27:08;;;;;;;14.25;7.65;;;;;;;;;;4994710;28;92513;-73
2022/08/23 09:29:36;;;;;;;19.05;8.75;;;;;;;;;;4995901;28;92839;-73
2022/08/23 09:32:04;;;;;;;16.38;8.48;;;;;;;;;;4995115;28;93152;-73
2022/08/23 09:34:36;;;;;;;18.77;8.80;;;;;;;;;;4994770;28;91631;-73
2022/08/23 09:37:07;;;;;;;12.15;8.38;;;;;;;;;;5029185;28;94845;-73
2022/08/23 09:39:37;;;;;;;10.32;7.47;;;;;;;;;;4994863;28;93261;-73
2022/08/23 09:42:24;;;;;;;12.35;8.10;;;;;;;;;;5029491;28;94911;-72
2022/08/23 09:44:50;;;;;;;17.88;8.95;;;;;;;;;;4994751;28;94587;-73
2022/08/23 09:47:19;;;;;;;19.83;8.05;;;;;;;;;;4995314;28;92513;-73
2022/08/23 09:49:51;;;;;;;12.95;7.00;;;;;;;;;;5027226;28;92904;-73
2022/08/23 09:52:31;;;;;;;19.00;8.38;;;;;;;;;;4995223;28;95807;-73
2022/08/23 09:55:05;;;;;;;14.47;8.50;;;;;;;;;;4994806;28;92531;-73
2022/08/23 09:57:38;;;;;;;20.63;7.10;;;;;;;;;;5027252;28;93039;-73
2022/08/23 10:00:22;;;;;;;12.45;7.20;;;;;;;;;;4994325;28;92459;-73
2022/08/23 10:02:55;;;;;;;20.67;6.95;;;;;;;;;;4973965;28;92926;-73
2022/08/23 10:05:35;;;;;;;11.10;4.63;;;;;;;;;;4977715;28;92995;-72
2022/08/23 10:08:02;;;;;;;11.65;5.97;;;;;;;;;;5008435;28;96726;-73
2022/08/23 10:11:00;;;;;;;16.05;7.85;;;;;;;;;;4995833;28;97940;-73
2022/08/23 10:13:30;;;;;;;17.02;7.47;;;;;;;;;;4989539;28;95522;-73
2022/08/23 10:16:06;;;;;;;10.20;5.40;;;;;;;;;;4974330;28;92657;-73
2022/08/23 10:18:53;;;;;;;10.20;4.25;;;;;;;;;;4980942;28;92824;-73
2022/08/23 10:21:29;;;;;;;10.38;4.07;;;;;;;;;;5025509;27;95550;-75
2022/08/23 10:24:15;;;;;;;7.95;4.00;;;;;;;;;;4984001;28;93067;-73
2022/08/23 10:29:35;;;;;;;10.25;3.70;;;;;;;;;;5010825;28;95601;-73
2022/08/23 10:29:54;;;;;;;13.40;4.43;;;;;;;;;;5010364;27;92602;-73
2022/08/23 10:32:34;;;;;;;9.40;3.78;;;;;;;;;;4977213;28;92795;-73
2022/08/23 10:35:10;;;;;;;9.95;4.30;;;;;;;;;;4984652;28;97975;-73
2022/08/23 10:37:51;;;;;;;9.60;3.80;;;;;;;;;;4978528;28;92641;-73
2022/08/23 10:40:17;;;;;;;7.60;3.10;;;;;;;;;;5016434;27;93699;-73
2022/08/23 10:43:12;;;;;;;7.25;3.15;;;;;;;;;;4974962;28;92393;-73
2022/08/23 10:45:40;;;;;;;8.65;3.67;;;;;;;;;;4986666;28;92940;-73
2022/08/23 10:48:27;;;;;;;9.05;2.97;;;;;;;;;;4980952;28;93803;-73
2022/08/23 10:50:56;;;;;;;9.80;2.58;;;;;;;;;;5009962;28;95842;-73
2022/08/23 10:53:27;;;;;;;12.13;2.90;;;;;;;;;;4988544;28;91820;-73
2022/08/23 10:56:06;;;;;;;5.88;2.40;;;;;;;;;;4972102;28;95897;-73
2022/08/23 10:58:48;;;;;;;5.45;2.40;;;;;;;;;;4974666;28;93201;-73
2022/08/23 11:01:18;;;;;;;6.88;2.58;;;;;;;;;;4977148;28;94934;-73
2022/08/23 11:04:00;;;;;;;7.80;2.83;;;;;;;;;;4974896;28;93095;-73
2022/08/23 11:06:36;;;;;;;5.28;2.65;;;;;;;;;;4973662;28;92540;-71
2022/08/23 11:09:06;;;;;;;4.15;2.38;;;;;;;;;;4981252;28;94194;-73
2022/08/23 11:11:39;;;;;;;9.55;2.90;;;;;;;;;;4992875;28;95487;-73
2022/08/23 11:14:08;;;;;;;10.15;2.17;;;;;;;;;;4990586;28;92490;-73
2022/08/23 11:16:35;;;;;;;7.65;2.13;;;;;;;;;;5006462;28;94681;-73
2022/08/23 11:19:02;;;;;;;5.95;1.75;;;;;;;;;;4974019;28;91749;-73
2022/08/23 11:21:39;;;;;;;8.57;2.40;;;;;;;;;;4972728;28;93192;-73
2022/08/23 11:24:08;;;;;;;8.43;2.40;;;;;;;;;;4977047;28;95363;-73
2022/08/23 11:26:39;;;;;;;5.35;2.15;;;;;;;;;;4986810;28;96366;-73
2022/08/23 11:29:09;;;;;;;6.88;2.47;;;;;;;;;;4995619;28;96150;-73
2022/08/23 11:31:46;;;;;;;6.15;2.42;;;;;;;;;;4993906;28;95662;-73
2022/08/23 11:34:22;;;;;;;6.45;2.70;;;;;;;;;;4988211;28;92625;-73
2022/08/23 11:37:17;;;;;;;4.68;2.08;;;;;;;;;;4979011;28;93004;-73
2022/08/23 11:39:57;;;;;;;4.00;2.00;;;;;;;;;;4976455;28;92967;-73
2022/08/23 11:42:36;;;;;;;6.75;2.03;;;;;;;;;;4977734;28;93116;-73
2022/08/23 11:45:19;;;;;;;5.30;2.42;;;;;;;;;;4977545;28;92480;-73
2022/08/23 11:47:52;;;;;;;12.07;3.00;;;;;;;;;;5013616;28;92556;-73
2022/08/23 11:50:18;;;;;;;8.45;2.95;;;;;;;;;;4977995;28;93146;-75
2022/08/23 11:52:59;;;;;;;7.10;2.88;;;;;;;;;;4976911;28;95668;-73
2022/08/23 11:55:25;;;;;;;4.65;2.30;;;;;;;;;;4977770;28;93502;-73
2022/08/23 11:58:06;;;;;;;9.55;2.85;;;;;;;;;;4978474;28;93207;-72
2022/08/23 12:00:51;;;;;;;7.05;2.35;;;;;;;;;;4980545;28;93380;-73
2022/08/23 12:03:32;;;;;;;5.18;2.50;;;;;;;;;;4995738;28;94684;-73
2022/08/23 12:05:59;;;;;;;;;;;;;;;;;;4997833;28;93418;-73
2022/08/23 12:08:28;;;;;;;3.40;2.20;;;;;;;;;;4978848;28;118151;-73
2022/08/23 12:10:54;;;;;;;5.22;2.15;;;;;;;;;;4992087;28;92063;-73
2022/08/23 12:13:21;;;;;;;38.00;7.32;;;;;;;;;;4982803;28;93692;-73
2022/08/23 12:16:06;;;;;;;8.43;2.28;;;;;;;;;;4977508;28;92445;-73
2022/08/23 12:18:51;;;;;;;13.95;3.63;;;;;;;;;;4976198;28;94655;-73
2022/08/23 12:21:44;;;;;;;8.70;2.42;;;;;;;;;;4978637;28;93596;-73
2022/08/23 12:24:24;;;;;;;11.88;3.10;;;;;;;;;;4977251;28;92983;-73
2022/08/23 12:27:07;;;;;;;4.15;2.13;;;;;;;;;;4977238;28;94159;-73
2022/08/23 12:29:36;;;;;;;6.03;2.35;;;;;;;;;;4977967;28;92457;-73
2022/08/23 12:32:08;;;;;;;7.50;2.33;;;;;;;;;;4977709;28;93870;-73
2022/08/23 12:34:41;;;;;;;8.45;2.53;;;;;;;;;;4977369;28;94084;-73
2022/08/23 12:37:20;;;;;;;18.38;4.20;;;;;;;;;;4978303;28;91645;-73
2022/08/23 12:39:48;;;;;;;3.63;1.77;;;;;;;;;;4977667;28;93283;-73
2022/08/23 12:42:17;;;;;;;7.95;1.83;;;;;;;;;;4976355;28;94016;-72
2022/08/23 12:44:44;;;;;;;6.32;2.22;;;;;;;;;;4977879;28;94899;-73
2022/08/23 12:47:16;;;;;;;8.18;1.98;;;;;;;;;;4977180;28;93191;-73
2022/08/23 12:49:42;;;;;;;;;;;;;;;;;;4977095;28;92531;-73
2022/08/23 12:52:10;;;;;;;5.82;1.85;;;;;;;;;;4996368;28;121894;-73
2022/08/23 12:54:36;;;;;;;3.78;1.83;;;;;;;;;;4983943;28;93408;-73
2022/08/23 12:57:10;;;;;;;3.72;1.63;;;;;;;;;;4980866;28;92538;-73
2022/08/23 12:59:37;;;;;;;3.28;1.75;;;;;;;;;;4978144;28;93990;-72
2022/08/23 13:02:10;;;;;;;8.52;2.05;;;;;;;;;;4978814;28;92907;-71
2022/08/23 13:04:38;;;;;;;5.22;1.90;;;;;;;;;;4987092;28;93364;-71
2022/08/23 13:07:05;;;;;;;5.63;2.63;;;;;;;;;;4998247;28;93246;-71
2022/08/23 13:09:36;;;;;;;7.65;2.60;;;;;;;;;;4987768;28;96587;-72
2022/08/23 13:12:05;;;;;;;5.07;2.07;;;;;;;;;;4989629;28;96275;-72
2022/08/23 13:14:31;;;;;;;6.38;2.05;;;;;;;;;;4973855;28;94237;-72
2022/08/23 13:17:17;;;;;;;5.97;2.33;;;;;;;;;;4991434;28;92427;-72
2022/08/23 13:19:44;;;;;;;3.80;2.20;;;;;;;;;;4994966;28;93945;-72
2022/08/23 13:22:17;;;;;;;6.07;2.20;;;;;;;;;;4989422;28;94339;-72
2022/08/23 13:24:56;;;;;;;6.18;2.10;;;;;;;;;;4994150;28;92442;-72
2022/08/23 13:27:42;;;;;;;4.95;2.00;;;;;;;;;;4991465;28;93026;-72
2022/08/23 13:30:09;;;;;;;3.33;2.00;;;;;;;;;;4999372;28;93375;-71
2022/08/23 13:32:38;;;;;;;11.68;2.58;;;;;;;;;;4986739;28;93130;-72
2022/08/23 13:35:22;;;;;;;5.20;2.28;;;;;;;;;;4990544;28;95806;-71
2022/08/23 13:37:49;;;;;;;9.23;2.28;;;;;;;;;;4992787;28;92457;-71
2022/08/23 13:40:21;;;;;;;6.78;2.72;;;;;;;;;;4995825;28;93922;-72
2022/08/23 13:42:51;;;;;;;3.97;2.38;;;;;;;;;;4981357;28;94068;-72
2022/08/23 13:45:20;;;;;;;5.15;2.28;;;;;;;;;;4991139;28;92444;-72
2022/08/23 13:47:49;;;;;;;5.38;2.33;;;;;;;;;;4993320;28;93914;-72
2022/08/23 13:50:21;;;;;;;3.65;1.80;;;;;;;;;;4995519;28;93213;-71
2022/08/23 13:52:47;;;;;;;7.65;2.30;;;;;;;;;;4996544;28;91685;-72
2022/08/23 13:55:39;;;;;;;4.32;2.00;;;;;;;;;;4986892;28;94063;-71
2022/08/23 13:58:08;;;;;;;10.68;2.30;;;;;;;;;;4995475;28;92453;-72
2022/08/23 14:00:35;;;;;;;4.15;2.05;;;;;;;;;;4991806;28;95945;-71
2022/08/23 14:03:01;;;;;;;5.80;2.35;;;;;;;;;;4991034;28;93209;-72
2022/08/23 14:05:28;;;;;;;4.25;2.20;;;;;;;;;;4986461;28;92501;-72
2022/08/23 14:07:58;;;;;;;5.22;2.20;;;;;;;;;;4981736;28;93735;-72
2022/08/23 14:10:24;;;;;;;8.50;2.35;;;;;;;;;;4983571;28;94174;-72
2022/08/23 14:12:52;;;;;;;5.70;1.98;;;;;;;;;;4986880;28;92451;-72
2022/08/23 14:15:19;;;;;;;4.75;2.10;;;;;;;;;;4988907;28;92949;-72
2022/08/23 14:17:49;;;;;;;8.18;2.05;;;;;;;;;;4986001;28;91741;-72
2022/08/23 14:20:17;;;;;;;5.00;2.78;;;;;;;;;;4985175;28;93129;-71
2022/08/23 14:23:04;;;;;;;7.70;2.30;;;;;;;;;;4988572;28;94078;-71
2022/08/23 14:25:37;;;;;;;6.05;2.00;;;;;;;;;;4981808;28;94855;-72
2022/08/23 14:28:04;;;;;;;3.88;2.63;;;;;;;;;;4984229;28;96554;-72
2022/08/23 14:30:31;;;;;;;6.20;2.03;;;;;;;;;;4987553;28;94323;-72
2022/08/23 14:32:58;;;;;;;4.32;2.17;;;;;;;;;;4987954;28;92395;-72
2022/08/23 14:35:25;;;;;;;3.35;2.45;;;;;;;;;;4989071;28;93890;-71
2022/08/23 14:37:51;;;;;;;5.88;1.92;;;;;;;;;;4990716;28;94110;-72
2022/08/23 14:40:33;;;;;;;;;;;;;;;;;;4986476;28;93901;-72
2022/08/23 14:42:59;;;;;;;5.00;1.83;;;;;;;;;;4987045;28;123733;-72
2022/08/23 14:45:26;;;;;;;4.72;1.73;;;;;;;;;;4983513;28;93001;-71
2022/08/23 14:47:52;;;;;;;6.18;2.50;;;;;;;;;;4988018;28;93827;-72
2022/08/23 14:50:19;;;;;;;3.72;1.73;;;;;;;;;;4987862;28;96271;-72
2022/08/23 14:52:46;;;;;;;9.70;1.80;;;;;;;;;;4985265;28;93767;-72
2022/08/23 14:55:13;;;;;;;8.93;2.20;;;;;;;;;;4987105;28;92910;-72
2022/08/23 14:57:40;;;;;;;4.40;2.00;;;;;;;;;;4992361;28;94219;-72
2022/08/23 15:00:07;;;;;;;2.85;1.98;;;;;;;;;;4984439;28;93903;-72
2022/08/23 15:02:35;;;;;;;6.95;1.98;;;;;;;;;;4992732;28;93296;-72
2022/08/23 15:05:02;;;;;;;6.53;1.92;;;;;;;;;;4984604;28;92881;-71
2022/08/23 15:07:28;;;;;;;5.00;2.05;;;;;;;;;;4987195;28;93871;-72